sensor_id;sensor_type;location;lat;lon;timestamp;pressure;altitude;pressure_sealevel;temperature;humidity
68193;BME280;55012;47.562;18.414;2024-01-16T00:01:51;97967.13;;;0.40;100.00
68193;BME280;55012;47.562;18.414;2024-01-16T00:04:16;97999.38;;;0.47;100.00
68193;BME280;55012;47.562;18.414;2024-01-16T00:06:42;97986.56;;;0.49;100.00
68193;BME280;55012;47.562;18.414;2024-01-16T00:09:08;97987.66;;;0.48;100.00
68193;BME280;55012;47.562;18.414;2024-01-16T00:11:40;97996.25;;;0.45;100.00
68193;BME280;55012;47.562;18.414;2024-01-16T00:14:06;97992.63;;;0.41;100.00
68193;BME280;55012;47.562;18.414;2024-01-16T00:16:31;97999.25;;;0.44;100.00
68193;BME280;55012;47.562;18.414;2024-01-16T00:18:56;98004.56;;;0.44;100.00
68193;BME280;55012;47.562;18.414;2024-01-16T00:21:22;98008.78;;;0.45;100.00
68193;BME280;55012;47.562;18.414;2024-01-16T00:23:47;98023.19;;;0.44;100.00
68193;BME280;55012;47.562;18.414;2024-01-16T00:26:22;98018.78;;;0.39;100.00
68193;BME280;55012;47.562;18.414;2024-01-16T00:28:48;98026.41;;;0.32;100.00
68193;BME280;55012;47.562;18.414;2024-01-16T00:31:13;98046.75;;;0.28;100.00
68193;BME280;55012;47.562;18.414;2024-01-16T00:33:39;98039.66;;;0.23;100.00
68193;BME280;55012;47.562;18.414;2024-01-16T00:36:05;98046.22;;;0.17;100.00
68193;BME280;55012;47.562;18.414;2024-01-16T00:38:33;98045.72;;;0.15;100.00
68193;BME280;55012;47.562;18.414;2024-01-16T00:40:58;98040.72;;;0.14;100.00
68193;BME280;55012;47.562;18.414;2024-01-16T00:43:24;98058.25;;;0.15;100.00
68193;BME280;55012;47.562;18.414;2024-01-16T00:45:49;98056.69;;;0.14;100.00
68193;BME280;55012;47.562;18.414;2024-01-16T00:48:15;98072.94;;;0.12;100.00
68193;BME280;55012;47.562;18.414;2024-01-16T00:50:41;98060.75;;;0.11;100.00
68193;BME280;55012;47.562;18.414;2024-01-16T00:53:06;98064.31;;;0.07;100.00
68193;BME280;55012;47.562;18.414;2024-01-16T00:55:32;98074.16;;;0.06;100.00
68193;BME280;55012;47.562;18.414;2024-01-16T00:57:57;98072.28;;;0.07;100.00
68193;BME280;55012;47.562;18.414;2024-01-16T01:00:22;98088.72;;;0.09;100.00
68193;BME280;55012;47.562;18.414;2024-01-16T01:02:48;98082.31;;;0.10;100.00
68193;BME280;55012;47.562;18.414;2024-01-16T01:05:13;98099.38;;;0.09;100.00
68193;BME280;55012;47.562;18.414;2024-01-16T01:07:38;98097.50;;;0.09;100.00
68193;BME280;55012;47.562;18.414;2024-01-16T01:10:04;98095.91;;;0.08;100.00
68193;BME280;55012;47.562;18.414;2024-01-16T01:12:30;98104.69;;;0.09;100.00
68193;BME280;55012;47.562;18.414;2024-01-16T01:14:55;98099.38;;;0.09;100.00
68193;BME280;55012;47.562;18.414;2024-01-16T01:17:21;98105.75;;;0.08;100.00
68193;BME280;55012;47.562;18.414;2024-01-16T01:19:46;98103.53;;;0.01;100.00
68193;BME280;55012;47.562;18.414;2024-01-16T01:22:11;98106.97;;;0.02;100.00
68193;BME280;55012;47.562;18.414;2024-01-16T01:24:37;98108.34;;;-0.01;100.00
68193;BME280;55012;47.562;18.414;2024-01-16T01:27:03;98104.13;;;-0.02;100.00
68193;BME280;55012;47.562;18.414;2024-01-16T01:29:29;98119.91;;;-0.06;100.00
68193;BME280;55012;47.562;18.414;2024-01-16T01:31:54;98118.66;;;-0.08;100.00
68193;BME280;55012;47.562;18.414;2024-01-16T01:34:20;98120.94;;;-0.15;100.00
68193;BME280;55012;47.562;18.414;2024-01-16T01:36:45;98120.94;;;-0.15;100.00
68193;BME280;55012;47.562;18.414;2024-01-16T01:39:10;98117.50;;;-0.16;100.00
68193;BME280;55012;47.562;18.414;2024-01-16T01:41:36;98114.06;;;-0.16;100.00
68193;BME280;55012;47.562;18.414;2024-01-16T01:44:02;98119.84;;;-0.14;100.00
68193;BME280;55012;47.562;18.414;2024-01-16T01:46:28;98121.41;;;-0.13;100.00
68193;BME280;55012;47.562;18.414;2024-01-16T01:48:54;98115.00;;;-0.12;100.00
68193;BME280;55012;47.562;18.414;2024-01-16T01:51:20;98116.56;;;-0.11;100.00
68193;BME280;55012;47.562;18.414;2024-01-16T01:53:48;98111.88;;;-0.14;100.00
68193;BME280;55012;47.562;18.414;2024-01-16T01:56:17;98107.94;;;-0.17;100.00
68193;BME280;55012;47.562;18.414;2024-01-16T01:58:44;98116.22;;;-0.18;100.00
68193;BME280;55012;47.562;18.414;2024-01-16T02:01:11;98122.63;;;-0.19;100.00
68193;BME280;55012;47.562;18.414;2024-01-16T02:03:43;98132.94;;;-0.18;100.00
68193;BME280;55012;47.562;18.414;2024-01-16T02:06:10;98134.03;;;-0.19;100.00
68193;BME280;55012;47.562;18.414;2024-01-16T02:08:36;98128.13;;;-0.16;100.00
68193;BME280;55012;47.562;18.414;2024-01-16T02:11:01;98136.28;;;-0.12;100.00
68193;BME280;55012;47.562;18.414;2024-01-16T02:13:27;98148.16;;;-0.10;100.00
68193;BME280;55012;47.562;18.414;2024-01-16T02:15:53;98145.72;;;-0.06;100.00
68193;BME280;55012;47.562;18.414;2024-01-16T02:18:18;98151.50;;;-0.04;100.00
68193;BME280;55012;47.562;18.414;2024-01-16T02:20:45;98155.72;;;-0.03;100.00
68193;BME280;55012;47.562;18.414;2024-01-16T02:23:12;98166.84;;;-0.01;100.00
68193;BME280;55012;47.562;18.414;2024-01-16T02:25:42;98164.69;;;0.01;100.00
68193;BME280;55012;47.562;18.414;2024-01-16T02:28:07;98165.47;;;0.02;100.00
68193;BME280;55012;47.562;18.414;2024-01-16T02:30:33;98173.94;;;0.04;100.00
68193;BME280;55012;47.562;18.414;2024-01-16T02:32:59;98173.94;;;0.04;100.00
68193;BME280;55012;47.562;18.414;2024-01-16T02:35:24;98172.84;;;0.05;100.00
68193;BME280;55012;47.562;18.414;2024-01-16T02:37:49;98179.13;;;0.09;100.00
68193;BME280;55012;47.562;18.414;2024-01-16T02:40:15;98189.78;;;0.09;100.00
68193;BME280;55012;47.562;18.414;2024-01-16T02:42:40;98185.72;;;0.11;100.00
68193;BME280;55012;47.562;18.414;2024-01-16T02:45:06;98181.50;;;0.10;100.00
68193;BME280;55012;47.562;18.414;2024-01-16T02:47:32;98189.16;;;0.12;100.00
68193;BME280;55012;47.562;18.414;2024-01-16T02:49:59;98194.97;;;0.14;100.00
68193;BME280;55012;47.562;18.414;2024-01-16T02:52:24;98188.38;;;0.11;100.00
68193;BME280;55012;47.562;18.414;2024-01-16T02:54:50;98180.69;;;0.10;100.00
68193;BME280;55012;47.562;18.414;2024-01-16T02:57:15;98189.25;;;0.07;100.00
68193;BME280;55012;47.562;18.414;2024-01-16T02:59:43;98200.81;;;0.02;100.00
68193;BME280;55012;47.562;18.414;2024-01-16T03:02:09;98204.38;;;-0.03;100.00
68193;BME280;55012;47.562;18.414;2024-01-16T03:04:35;98201.41;;;-0.01;100.00
68193;BME280;55012;47.562;18.414;2024-01-16T03:07:00;98216.00;;;0.02;100.00
68193;BME280;55012;47.562;18.414;2024-01-16T03:09:25;98203.47;;;0.02;100.00
68193;BME280;55012;47.562;18.414;2024-01-16T03:11:51;98211.63;;;0.06;100.00
68193;BME280;55012;47.562;18.414;2024-01-16T03:14:17;98220.38;;;0.06;100.00
68193;BME280;55012;47.562;18.414;2024-01-16T03:16:43;98214.13;;;0.02;100.00
68193;BME280;55012;47.562;18.414;2024-01-16T03:19:09;98212.41;;;0.06;100.00
68193;BME280;55012;47.562;18.414;2024-01-16T03:21:35;98219.13;;;0.04;100.00
68193;BME280;55012;47.562;18.414;2024-01-16T03:24:00;98216.16;;;0.05;100.00
68193;BME280;55012;47.562;18.414;2024-01-16T03:26:26;98219.59;;;0.06;100.00
68193;BME280;55012;47.562;18.414;2024-01-16T03:28:51;98222.56;;;0.04;100.00
68193;BME280;55012;47.562;18.414;2024-01-16T03:31:16;98222.66;;;-0.01;100.00
68193;BME280;55012;47.562;18.414;2024-01-16T03:33:43;98233.91;;;-0.04;100.00
68193;BME280;55012;47.562;18.414;2024-01-16T03:36:09;98229.69;;;-0.05;100.00
68193;BME280;55012;47.562;18.414;2024-01-16T03:38:35;98237.66;;;-0.05;100.00
68193;BME280;55012;47.562;18.414;2024-01-16T03:41:02;98229.47;;;-0.09;100.00
68193;BME280;55012;47.562;18.414;2024-01-16T03:43:29;98242.78;;;-0.09;100.00
68193;BME280;55012;47.562;18.414;2024-01-16T03:45:57;98228.69;;;-0.09;100.00
68193;BME280;55012;47.562;18.414;2024-01-16T03:48:22;98236.19;;;-0.11;100.00
68193;BME280;55012;47.562;18.414;2024-01-16T03:50:48;98237.75;;;-0.10;100.00
68193;BME280;55012;47.562;18.414;2024-01-16T03:53:13;98235.41;;;-0.12;100.00
68193;BME280;55012;47.562;18.414;2024-01-16T03:55:39;98250.41;;;-0.16;100.00
68193;BME280;55012;47.562;18.414;2024-01-16T03:58:04;98241.91;;;-0.18;100.00
68193;BME280;55012;47.562;18.414;2024-01-16T04:00:29;98251.56;;;-0.22;100.00
68193;BME280;55012;47.562;18.414;2024-01-16T04:02:55;98251.09;;;-0.24;100.00
68193;BME280;55012;47.562;18.414;2024-01-16T04:05:20;98245.47;;;-0.22;100.00
68193;BME280;55012;47.562;18.414;2024-01-16T04:07:45;98261.13;;;-0.21;100.00
68193;BME280;55012;47.562;18.414;2024-01-16T04:10:11;98259.34;;;-0.25;100.00
68193;BME280;55012;47.562;18.414;2024-01-16T04:12:37;98251.19;;;-0.29;100.00
68193;BME280;55012;47.562;18.414;2024-01-16T04:15:03;98255.25;;;-0.32;100.00
68193;BME280;55012;47.562;18.414;2024-01-16T04:17:28;98262.44;;;-0.32;100.00
68193;BME280;55012;47.562;18.414;2024-01-16T04:19:53;98255.53;;;-0.33;100.00
68193;BME280;55012;47.562;18.414;2024-01-16T04:22:19;98256.59;;;-0.34;100.00
68193;BME280;55012;47.562;18.414;2024-01-16T04:24:44;98267.22;;;-0.34;100.00
68193;BME280;55012;47.562;18.414;2024-01-16T04:27:10;98250.81;;;-0.36;100.00
68193;BME280;55012;47.562;18.414;2024-01-16T04:29:36;98264.31;;;-0.33;100.00
68193;BME280;55012;47.562;18.414;2024-01-16T04:32:02;98262.50;;;-0.37;100.00
68193;BME280;55012;47.562;18.414;2024-01-16T04:34:28;98267.66;;;-0.41;100.00
68193;BME280;55012;47.562;18.414;2024-01-16T04:36:53;98283.00;;;-0.38;100.00
68193;BME280;55012;47.562;18.414;2024-01-16T04:39:19;98283.78;;;-0.37;100.00
68193;BME280;55012;47.562;18.414;2024-01-16T04:41:44;98285.47;;;-0.41;100.00
68193;BME280;55012;47.562;18.414;2024-01-16T04:44:09;98286.03;;;-0.44;100.00
68193;BME280;55012;47.562;18.414;2024-01-16T04:46:35;98287.13;;;-0.45;100.00
68193;BME280;55012;47.562;18.414;2024-01-16T04:49:00;98290.38;;;-0.48;100.00
68193;BME280;55012;47.562;18.414;2024-01-16T04:51:25;98297.84;;;-0.50;100.00
68193;BME280;55012;47.562;18.414;2024-01-16T04:53:51;98300.31;;;-0.54;100.00
68193;BME280;55012;47.562;18.414;2024-01-16T04:56:16;98300.13;;;-0.58;100.00
68193;BME280;55012;47.562;18.414;2024-01-16T04:58:41;98299.03;;;-0.57;100.00
68193;BME280;55012;47.562;18.414;2024-01-16T05:01:07;98304.91;;;-0.60;100.00
68193;BME280;55012;47.562;18.414;2024-01-16T05:03:33;98317.63;;;-0.57;100.00
68193;BME280;55012;47.562;18.414;2024-01-16T05:05:58;98307.88;;;-0.61;100.00
68193;BME280;55012;47.562;18.414;2024-01-16T05:08:24;98323.03;;;-0.62;100.00
68193;BME280;55012;47.562;18.414;2024-01-16T05:10:49;98310.81;;;-0.63;100.00
68193;BME280;55012;47.562;18.414;2024-01-16T05:13:14;98320.97;;;-0.65;100.00
68193;BME280;55012;47.562;18.414;2024-01-16T05:15:40;98321.25;;;-0.66;100.00
68193;BME280;55012;47.562;18.414;2024-01-16T05:18:06;98322.63;;;-0.69;100.00
68193;BME280;55012;47.562;18.414;2024-01-16T05:20:31;98327.94;;;-0.69;100.00
68193;BME280;55012;47.562;18.414;2024-01-16T05:22:56;98335.22;;;-0.74;100.00
68193;BME280;55012;47.562;18.414;2024-01-16T05:25:22;98333.34;;;-0.74;100.00
68193;BME280;55012;47.562;18.414;2024-01-16T05:27:47;98333.34;;;-0.74;100.00
68193;BME280;55012;47.562;18.414;2024-01-16T05:30:14;98337.88;;;-0.74;100.00
68193;BME280;55012;47.562;18.414;2024-01-16T05:32:40;98331.25;;;-0.77;100.00
68193;BME280;55012;47.562;18.414;2024-01-16T05:35:06;98340.59;;;-0.79;100.00
68193;BME280;55012;47.562;18.414;2024-01-16T05:37:32;98349.44;;;-0.84;100.00
68193;BME280;55012;47.562;18.414;2024-01-16T05:39:57;98331.81;;;-0.94;100.00
68193;BME280;55012;47.562;18.414;2024-01-16T05:42:23;98350.56;;;-1.04;100.00
68193;BME280;55012;47.562;18.414;2024-01-16T05:44:48;98358.59;;;-1.09;100.00
68193;BME280;55012;47.562;18.414;2024-01-16T05:47:14;98354.72;;;-1.17;100.00
68193;BME280;55012;47.562;18.414;2024-01-16T05:49:39;98358.28;;;-1.21;100.00
68193;BME280;55012;47.562;18.414;2024-01-16T05:52:06;98369.75;;;-1.26;100.00
68193;BME280;55012;47.562;18.414;2024-01-16T05:54:32;98380.22;;;-1.34;100.00
68193;BME280;55012;47.562;18.414;2024-01-16T05:56:57;98409.75;;;-1.41;100.00
68193;BME280;55012;47.562;18.414;2024-01-16T05:59:23;98390.69;;;-1.43;100.00
68193;BME280;55012;47.562;18.414;2024-01-16T06:01:48;98388.91;;;-1.48;100.00
68193;BME280;55012;47.562;18.414;2024-01-16T06:04:14;98385.97;;;-1.46;100.00
68193;BME280;55012;47.562;18.414;2024-01-16T06:06:40;98403.44;;;-1.45;100.00
68193;BME280;55012;47.562;18.414;2024-01-16T06:09:09;98412.06;;;-1.34;100.00
68193;BME280;55012;47.562;18.414;2024-01-16T06:11:37;98408.84;;;-1.31;100.00
68193;BME280;55012;47.562;18.414;2024-01-16T06:14:03;98408.47;;;-1.25;100.00
68193;BME280;55012;47.562;18.414;2024-01-16T06:16:28;98420.88;;;-1.20;100.00
68193;BME280;55012;47.562;18.414;2024-01-16T06:18:55;98418.16;;;-1.15;100.00
68193;BME280;55012;47.562;18.414;2024-01-16T06:21:20;98434.28;;;-1.11;100.00
68193;BME280;55012;47.562;18.414;2024-01-16T06:23:45;98426.25;;;-1.06;100.00
68193;BME280;55012;47.562;18.414;2024-01-16T06:26:11;98421.16;;;-1.03;100.00
68193;BME280;55012;47.562;18.414;2024-01-16T06:28:36;98424.88;;;-1.04;100.00
68193;BME280;55012;47.562;18.414;2024-01-16T06:31:01;98426.09;;;-0.96;100.00
68193;BME280;55012;47.562;18.414;2024-01-16T06:33:27;98418.63;;;-0.94;100.00
68193;BME280;55012;47.562;18.414;2024-01-16T06:35:54;98421.22;;;-0.89;100.00
68193;BME280;55012;47.562;18.414;2024-01-16T06:38:20;98428.09;;;-0.88;100.00
68193;BME280;55012;47.562;18.414;2024-01-16T06:40:46;98423.09;;;-0.90;100.00
68193;BME280;55012;47.562;18.414;2024-01-16T06:43:11;98431.09;;;-0.76;100.00
68193;BME280;55012;47.562;18.414;2024-01-16T06:45:39;98441.34;;;-0.69;100.00
68193;BME280;55012;47.562;18.414;2024-01-16T06:48:05;98443.69;;;-0.68;100.00
68193;BME280;55012;47.562;18.414;2024-01-16T06:50:30;98440.78;;;-0.66;100.00
68193;BME280;55012;47.562;18.414;2024-01-16T06:52:56;98455.53;;;-0.60;100.00
68193;BME280;55012;47.562;18.414;2024-01-16T06:55:21;98445.69;;;-0.60;100.00
68193;BME280;55012;47.562;18.414;2024-01-16T06:57:46;98451.53;;;-0.58;100.00
68193;BME280;55012;47.562;18.414;2024-01-16T07:00:13;98447.06;;;-0.62;100.00
68193;BME280;55012;47.562;18.414;2024-01-16T07:02:39;98455.03;;;-0.62;100.00
68193;BME280;55012;47.562;18.414;2024-01-16T07:05:05;98459.28;;;-0.61;100.00
68193;BME280;55012;47.562;18.414;2024-01-16T07:07:30;98454.84;;;-0.66;100.00
68193;BME280;55012;47.562;18.414;2024-01-16T07:09:55;98458.00;;;-0.64;100.00
68193;BME280;55012;47.562;18.414;2024-01-16T07:12:21;98457.69;;;-0.62;100.00
68193;BME280;55012;47.562;18.414;2024-01-16T07:14:46;98457.91;;;-0.59;100.00
68193;BME280;55012;47.562;18.414;2024-01-16T07:17:12;98467.97;;;-0.55;100.00
68193;BME280;55012;47.562;18.414;2024-01-16T07:19:37;98468.94;;;-0.51;100.00
68193;BME280;55012;47.562;18.414;2024-01-16T07:22:03;98462.75;;;-0.47;100.00
68193;BME280;55012;47.562;18.414;2024-01-16T07:24:28;98475.38;;;-0.39;100.00
68193;BME280;55012;47.562;18.414;2024-01-16T07:26:54;98470.78;;;-0.33;100.00
68193;BME280;55012;47.562;18.414;2024-01-16T07:29:19;98463.31;;;-0.31;100.00
68193;BME280;55012;47.562;18.414;2024-01-16T07:31:46;98464.75;;;-0.25;100.00
68193;BME280;55012;47.562;18.414;2024-01-16T07:34:11;98450.13;;;-0.22;100.00
68193;BME280;55012;47.562;18.414;2024-01-16T07:36:37;98442.44;;;-0.24;100.00
68193;BME280;55012;47.562;18.414;2024-01-16T07:39:03;98439.69;;;-0.19;100.00
68193;BME280;55012;47.562;18.414;2024-01-16T07:41:29;98439.59;;;-0.14;100.00
68193;BME280;55012;47.562;18.414;2024-01-16T07:43:54;98424.63;;;-0.10;100.00
68193;BME280;55012;47.562;18.414;2024-01-16T07:46:19;98419.22;;;-0.05;100.00
68193;BME280;55012;47.562;18.414;2024-01-16T07:48:44;98411.44;;;-0.01;100.00
68193;BME280;55012;47.562;18.414;2024-01-16T07:51:10;98404.25;;;-0.01;100.00
68193;BME280;55012;47.562;18.414;2024-01-16T07:53:36;98401.00;;;0.03;100.00
68193;BME280;55012;47.562;18.414;2024-01-16T07:56:01;98385.84;;;0.03;100.00
68193;BME280;55012;47.562;18.414;2024-01-16T07:58:27;98384.16;;;0.07;100.00
68193;BME280;55012;47.562;18.414;2024-01-16T08:00:52;98365.28;;;0.09;100.00
68193;BME280;55012;47.562;18.414;2024-01-16T08:03:17;98360.63;;;0.14;100.00
68193;BME280;55012;47.562;18.414;2024-01-16T08:05:43;98355.78;;;0.16;100.00
68193;BME280;55012;47.562;18.414;2024-01-16T08:08:08;98361.59;;;0.18;100.00
68193;BME280;55012;47.562;18.414;2024-01-16T08:10:35;98351.16;;;0.22;100.00
68193;BME280;55012;47.562;18.414;2024-01-16T08:13:00;98346.31;;;0.24;100.00
68193;BME280;55012;47.562;18.414;2024-01-16T08:15:25;98357.94;;;0.28;100.00
68193;BME280;55012;47.562;18.414;2024-01-16T08:17:51;98348.25;;;0.32;100.00
68193;BME280;55012;47.562;18.414;2024-01-16T08:20:16;98327.59;;;0.29;100.00
68193;BME280;55012;47.562;18.414;2024-01-16T08:22:42;98327.50;;;0.34;100.00
68193;BME280;55012;47.562;18.414;2024-01-16T08:25:07;98308.88;;;0.34;100.00
68193;BME280;55012;47.562;18.414;2024-01-16T08:27:33;98309.06;;;0.38;100.00
68193;BME280;55012;47.562;18.414;2024-01-16T08:29:59;98288.75;;;0.42;100.00
68193;BME280;55012;47.562;18.414;2024-01-16T08:32:24;98264.59;;;0.38;100.00
68193;BME280;55012;47.562;18.414;2024-01-16T08:34:49;98262.78;;;0.47;100.00
68193;BME280;55012;47.562;18.414;2024-01-16T08:37:15;98253.91;;;0.52;100.00
68193;BME280;55012;47.562;18.414;2024-01-16T08:39:40;98248.97;;;0.59;100.00
68193;BME280;55012;47.562;18.414;2024-01-16T08:42:06;98235.19;;;0.66;100.00
68193;BME280;55012;47.562;18.414;2024-01-16T08:44:31;98229.59;;;0.67;100.00
68193;BME280;55012;47.562;18.414;2024-01-16T08:46:57;98222.09;;;0.69;100.00
68193;BME280;55012;47.562;18.414;2024-01-16T08:49:24;98204.91;;;0.75;100.00
68193;BME280;55012;47.562;18.414;2024-01-16T08:51:49;98207.41;;;0.80;100.00
68193;BME280;55012;47.562;18.414;2024-01-16T08:54:15;98208.09;;;0.86;100.00
68193;BME280;55012;47.562;18.414;2024-01-16T08:56:40;98210.00;;;0.94;100.00
68193;BME280;55012;47.562;18.414;2024-01-16T08:59:05;98209.72;;;1.04;100.00
68193;BME280;55012;47.562;18.414;2024-01-16T09:01:31;98201.31;;;1.11;100.00
68193;BME280;55012;47.562;18.414;2024-01-16T09:03:56;98208.41;;;1.24;100.00
68193;BME280;55012;47.562;18.414;2024-01-16T09:06:21;98203.91;;;1.33;100.00
68193;BME280;55012;47.562;18.414;2024-01-16T09:08:47;98205.47;;;1.34;100.00
68193;BME280;55012;47.562;18.414;2024-01-16T09:11:12;98200.75;;;1.40;100.00
68193;BME280;55012;47.562;18.414;2024-01-16T09:13:38;98205.81;;;1.42;100.00
68193;BME280;55012;47.562;18.414;2024-01-16T09:16:03;98212.53;;;1.48;100.00
68193;BME280;55012;47.562;18.414;2024-01-16T09:18:29;98223.06;;;1.53;100.00
68193;BME280;55012;47.562;18.414;2024-01-16T09:20:55;98243.94;;;1.59;100.00
68193;BME280;55012;47.562;18.414;2024-01-16T09:23:20;98255.81;;;1.53;100.00
68193;BME280;55012;47.562;18.414;2024-01-16T09:25:46;98266.16;;;1.46;100.00
68193;BME280;55012;47.562;18.414;2024-01-16T09:28:11;98281.16;;;1.33;100.00
68193;BME280;55012;47.562;18.414;2024-01-16T09:30:37;98267.25;;;1.14;100.00
68193;BME280;55012;47.562;18.414;2024-01-16T09:33:03;98259.38;;;1.00;100.00
68193;BME280;55012;47.562;18.414;2024-01-16T09:35:32;98275.59;;;0.90;100.00
68193;BME280;55012;47.562;18.414;2024-01-16T09:37:57;98272.28;;;0.84;100.00
68193;BME280;55012;47.562;18.414;2024-01-16T09:40:24;98283.25;;;0.83;100.00
68193;BME280;55012;47.562;18.414;2024-01-16T09:42:50;98276.56;;;0.94;100.00
68193;BME280;55012;47.562;18.414;2024-01-16T09:45:19;98276.19;;;1.09;100.00
68193;BME280;55012;47.562;18.414;2024-01-16T09:47:46;98274.34;;;1.19;100.00
68193;BME280;55012;47.562;18.414;2024-01-16T09:50:14;98267.97;;;1.28;100.00
68193;BME280;55012;47.562;18.414;2024-01-16T09:52:41;98267.66;;;1.30;100.00
68193;BME280;55012;47.562;18.414;2024-01-16T09:55:07;98262.97;;;1.35;100.00
68193;BME280;55012;47.562;18.414;2024-01-16T09:57:32;98271.44;;;1.37;100.00
68193;BME280;55012;47.562;18.414;2024-01-16T09:59:59;98267.53;;;1.35;100.00
68193;BME280;55012;47.562;18.414;2024-01-16T10:02:26;98250.09;;;1.29;100.00
68193;BME280;55012;47.562;18.414;2024-01-16T10:04:52;98290.81;;;1.21;100.00
68193;BME280;55012;47.562;18.414;2024-01-16T10:07:18;98263.81;;;1.13;100.00
68193;BME280;55012;47.562;18.414;2024-01-16T10:09:50;98267.38;;;1.00;100.00
68193;BME280;55012;47.562;18.414;2024-01-16T10:12:16;98284.88;;;0.93;100.00
68193;BME280;55012;47.562;18.414;2024-01-16T10:14:42;98255.59;;;0.93;100.00
68193;BME280;55012;47.562;18.414;2024-01-16T10:17:08;98260.91;;;0.93;100.00
68193;BME280;55012;47.562;18.414;2024-01-16T10:19:50;98269.38;;;0.95;100.00
68193;BME280;55012;47.562;18.414;2024-01-16T10:22:24;98261.53;;;0.98;100.00
68193;BME280;55012;47.562;18.414;2024-01-16T10:25:11;98255.63;;;1.01;100.00
68193;BME280;55012;47.562;18.414;2024-01-16T10:27:39;98241.81;;;0.99;100.00
68193;BME280;55012;47.562;18.414;2024-01-16T10:30:05;98245.44;;;1.03;100.00
68193;BME280;55012;47.562;18.414;2024-01-16T10:32:38;98256.44;;;1.10;100.00
68193;BME280;55012;47.562;18.414;2024-01-16T10:35:07;98243.59;;;1.12;100.00
68193;BME280;55012;47.562;18.414;2024-01-16T10:37:50;98265.09;;;1.16;100.00
68193;BME280;55012;47.562;18.414;2024-01-16T10:40:19;98243.63;;;1.21;100.00
68193;BME280;55012;47.562;18.414;2024-01-16T10:42:45;98248.06;;;1.26;100.00
68193;BME280;55012;47.562;18.414;2024-01-16T10:45:18;98272.66;;;1.31;100.00
68193;BME280;55012;47.562;18.414;2024-01-16T10:47:47;98307.97;;;1.37;100.00
68193;BME280;55012;47.562;18.414;2024-01-16T10:50:13;98282.56;;;1.39;100.00
68193;BME280;55012;47.562;18.414;2024-01-16T10:52:47;98265.38;;;1.46;100.00
68193;BME280;55012;47.562;18.414;2024-01-16T10:55:23;98273.56;;;1.58;100.00
68193;BME280;55012;47.562;18.414;2024-01-16T10:57:49;98256.47;;;1.59;100.00
68193;BME280;55012;47.562;18.414;2024-01-16T11:00:21;98260.88;;;1.63;100.00
68193;BME280;55012;47.562;18.414;2024-01-16T11:05:46;98276.56;;;1.74;100.00
68193;BME280;55012;47.562;18.414;2024-01-16T11:08:13;98291.03;;;1.81;100.00
68193;BME280;55012;47.562;18.414;2024-01-16T11:10:42;98337.31;;;1.85;100.00
68193;BME280;55012;47.562;18.414;2024-01-16T11:13:09;98297.31;;;1.85;100.00
68193;BME280;55012;47.562;18.414;2024-01-16T11:15:37;98302.22;;;1.92;100.00
68193;BME280;55012;47.562;18.414;2024-01-16T11:18:04;98333.91;;;2.02;100.00
68193;BME280;55012;47.562;18.414;2024-01-16T11:20:30;98366.88;;;2.06;100.00
68193;BME280;55012;47.562;18.414;2024-01-16T11:22:57;98317.28;;;2.14;100.00
68193;BME280;55012;47.562;18.414;2024-01-16T11:25:33;98380.41;;;2.18;100.00
68193;BME280;55012;47.562;18.414;2024-01-16T11:28:11;98405.66;;;2.12;100.00
68193;BME280;55012;47.562;18.414;2024-01-16T11:30:37;98397.34;;;2.14;100.00
68193;BME280;55012;47.562;18.414;2024-01-16T11:33:02;98428.44;;;2.18;100.00
68193;BME280;55012;47.562;18.414;2024-01-16T11:35:34;98463.16;;;2.27;100.00
68193;BME280;55012;47.562;18.414;2024-01-16T11:38:06;98527.56;;;2.34;100.00
68193;BME280;55012;47.562;18.414;2024-01-16T11:40:33;98479.53;;;2.43;100.00
68193;BME280;55012;47.562;18.414;2024-01-16T11:43:40;98491.03;;;2.52;100.00
68193;BME280;55012;47.562;18.414;2024-01-16T11:46:08;98601.84;;;2.41;100.00
68193;BME280;55012;47.562;18.414;2024-01-16T11:48:34;98664.16;;;2.36;100.00
68193;BME280;55012;47.562;18.414;2024-01-16T11:51:00;98645.78;;;2.35;100.00
68193;BME280;55012;47.562;18.414;2024-01-16T11:53:45;98617.81;;;2.32;100.00
68193;BME280;55012;47.562;18.414;2024-01-16T12:01:36;98696.53;;;2.43;100.00
68193;BME280;55012;47.562;18.414;2024-01-16T12:04:05;98713.97;;;2.41;100.00
68193;BME280;55012;47.562;18.414;2024-01-16T12:06:31;98648.81;;;2.42;100.00
68193;BME280;55012;47.562;18.414;2024-01-16T12:09:12;98692.00;;;2.44;100.00
68193;BME280;55012;47.562;18.414;2024-01-16T12:11:39;98673.91;;;2.41;100.00
68193;BME280;55012;47.562;18.414;2024-01-16T12:14:04;98703.34;;;2.49;100.00
68193;BME280;55012;47.562;18.414;2024-01-16T12:16:30;98604.72;;;2.53;100.00
68193;BME280;55012;47.562;18.414;2024-01-16T12:19:08;98632.63;;;2.47;100.00
68193;BME280;55012;47.562;18.414;2024-01-16T12:21:53;98666.25;;;2.48;100.00
68193;BME280;55012;47.562;18.414;2024-01-16T12:24:19;98728.16;;;2.50;100.00
68193;BME280;55012;47.562;18.414;2024-01-16T12:26:44;98701.78;;;2.48;100.00
68193;BME280;55012;47.562;18.414;2024-01-16T12:29:10;98728.47;;;2.48;100.00
68193;BME280;55012;47.562;18.414;2024-01-16T12:31:35;98699.09;;;2.48;100.00
68193;BME280;55012;47.562;18.414;2024-01-16T12:34:11;98735.19;;;2.46;100.00
68193;BME280;55012;47.562;18.414;2024-01-16T12:36:37;98778.59;;;2.38;100.00
68193;BME280;55012;47.562;18.414;2024-01-16T12:39:03;98744.22;;;2.36;100.00
68193;BME280;55012;47.562;18.414;2024-01-16T12:41:34;98740.47;;;2.37;100.00
68193;BME280;55012;47.562;18.414;2024-01-16T12:44:02;98760.91;;;2.42;100.00
68193;BME280;55012;47.562;18.414;2024-01-16T12:46:27;98792.63;;;2.43;100.00
68193;BME280;55012;47.562;18.414;2024-01-16T12:48:53;98803.72;;;2.37;100.00
68193;BME280;55012;47.562;18.414;2024-01-16T12:51:25;98740.28;;;2.34;100.00